createdAt,value
2023-05-10T00:03:14.729Z,4.40
2023-05-10T00:05:42.379Z,4.78
2023-05-10T00:08:08.901Z,4.65
2023-05-10T00:10:35.653Z,4.85
2023-05-10T00:13:02.119Z,4.70
2023-05-10T00:15:28.640Z,5.05
2023-05-10T00:17:55.240Z,4.55
2023-05-10T00:20:21.767Z,4.63
2023-05-10T00:22:48.271Z,4.78
2023-05-10T00:25:15.219Z,4.97
2023-05-10T00:27:41.724Z,4.82
2023-05-10T00:30:08.920Z,5.47
2023-05-10T00:32:35.479Z,4.60
2023-05-10T00:35:01.999Z,5.25
2023-05-10T00:37:28.533Z,4.95
2023-05-10T00:39:55.470Z,4.72
2023-05-10T00:42:23.176Z,6.68
2023-05-10T00:44:49.827Z,5.53
2023-05-10T00:47:18.782Z,5.07
2023-05-10T00:49:46.563Z,5.43
2023-05-10T00:52:13.315Z,5.03
2023-05-10T00:54:40.411Z,5.63
2023-05-10T00:57:07.222Z,5.03
2023-05-10T00:59:34.115Z,4.78
2023-05-10T01:02:00.540Z,5.72
2023-05-10T01:04:27.158Z,5.22
2023-05-10T01:06:54.205Z,4.57
2023-05-10T01:09:22.657Z,5.20
2023-05-10T01:11:51.909Z,5.15
2023-05-10T01:14:20.101Z,5.47
2023-05-10T01:16:49.522Z,5.60
2023-05-10T01:19:30.563Z,5.22
2023-05-10T01:22:41.282Z,5.30
2023-05-10T01:25:10.968Z,5.13
2023-05-10T01:27:59.925Z,4.82
2023-05-10T01:30:41.947Z,5.05
2023-05-10T01:33:44.506Z,5.00
2023-05-10T01:36:49.353Z,4.97
2023-05-10T01:39:31.519Z,5.22
2023-05-10T01:42:00.900Z,5.40
2023-05-10T01:45:07.797Z,5.05
2023-05-10T01:47:45.622Z,5.18
2023-05-10T01:50:19.180Z,5.10
2023-05-10T01:52:52.473Z,4.97
2023-05-10T01:55:22.142Z,5.20
2023-05-10T01:57:54.062Z,5.20
2023-05-10T02:00:21.340Z,5.57
2023-05-10T02:02:50.704Z,5.00
2023-05-10T02:05:20.167Z,5.13
2023-05-10T02:07:48.414Z,4.82
2023-05-10T02:10:19.690Z,4.82
2023-05-10T02:12:49.155Z,5.10
2023-05-10T02:15:21.015Z,5.50
2023-05-10T02:17:48.131Z,5.05
2023-05-10T02:20:17.595Z,4.88
2023-05-10T02:22:48.238Z,5.13
2023-05-10T02:25:16.404Z,5.13
2023-05-10T02:27:45.597Z,4.40
2023-05-10T02:30:15.101Z,5.10
2023-05-10T02:32:43.273Z,4.97
2023-05-10T02:35:11.992Z,4.93
2023-05-10T02:37:40.059Z,4.78
2023-05-10T02:40:08.550Z,4.70
2023-05-10T02:42:38.151Z,4.47
2023-05-10T02:45:11.347Z,4.60
2023-05-10T02:47:38.304Z,4.65
2023-05-10T02:50:05.285Z,4.88
2023-05-10T02:52:41.520Z,4.85
2023-05-10T02:55:12.804Z,4.75
2023-05-10T02:57:44.067Z,4.40
2023-05-10T03:00:11.266Z,5.25
2023-05-10T03:05:04.578Z,4.45
2023-05-10T03:07:31.229Z,4.78
2023-05-10T03:09:57.987Z,5.13
2023-05-10T03:12:45.508Z,4.47
2023-05-10T03:15:40.944Z,5.43
2023-05-10T03:18:22.766Z,4.80
2023-05-10T03:20:54.287Z,4.35
2023-05-10T03:23:44.473Z,4.35
2023-05-10T03:26:17.484Z,4.25
2023-05-10T03:28:44.969Z,4.35
2023-05-10T03:31:13.207Z,4.90
2023-05-10T03:33:50.617Z,5.35
2023-05-10T03:36:17.227Z,4.88
2023-05-10T03:38:43.962Z,4.97
2023-05-10T03:41:10.595Z,4.90
2023-05-10T03:43:37.393Z,4.60
2023-05-10T03:46:07.913Z,5.03
2023-05-10T03:48:34.361Z,4.82
2023-05-10T03:51:01.126Z,4.68
2023-05-10T03:53:27.728Z,4.50
2023-05-10T03:55:54.408Z,4.38
2023-05-10T03:58:20.967Z,4.60
2023-05-10T04:00:47.481Z,5.25
2023-05-10T04:03:14.531Z,6.80
2023-05-10T04:05:41.637Z,6.28
2023-05-10T04:08:08.311Z,4.43
2023-05-10T04:10:35.049Z,4.43
2023-05-10T04:13:01.991Z,4.38
2023-05-10T04:15:28.492Z,3.72
2023-05-10T04:17:57.839Z,4.30
2023-05-10T04:20:24.399Z,4.57
2023-05-10T04:22:50.916Z,4.43
2023-05-10T04:25:17.417Z,4.55
2023-05-10T04:27:43.943Z,4.45
2023-05-10T04:30:11.112Z,4.30
2023-05-10T04:35:04.292Z,4.65
2023-05-10T04:37:30.777Z,4.53
2023-05-10T04:39:57.577Z,4.63
2023-05-10T04:42:24.281Z,4.05
2023-05-10T04:44:50.762Z,5.13
2023-05-10T04:47:17.185Z,4.30
2023-05-10T04:49:44.321Z,3.83
2023-05-10T04:52:11.021Z,3.78
2023-05-10T04:54:37.456Z,4.22
2023-05-10T04:57:04.236Z,4.00
2023-05-10T04:59:30.900Z,3.83
2023-05-10T05:01:57.390Z,3.90
2023-05-10T05:04:24.038Z,4.00
2023-05-10T05:06:52.337Z,4.05
2023-05-10T05:09:20.529Z,4.00
2023-05-10T05:11:47.212Z,4.00
2023-05-10T05:14:13.968Z,3.55
2023-05-10T05:16:40.763Z,3.80
2023-05-10T05:19:07.555Z,3.42
2023-05-10T05:21:34.406Z,4.03
2023-05-10T05:24:00.933Z,3.83
2023-05-10T05:26:27.498Z,3.70
2023-05-10T05:28:54.132Z,3.90
2023-05-10T05:31:22.064Z,3.67
2023-05-10T05:33:48.708Z,3.92
2023-05-10T05:36:16.273Z,3.90
2023-05-10T05:38:42.760Z,3.60
2023-05-10T05:41:09.719Z,3.20
2023-05-10T05:43:38.340Z,3.60
2023-05-10T05:46:05.506Z,3.97
2023-05-10T05:48:32.557Z,2.88
2023-05-10T05:53:25.986Z,3.65
2023-05-10T05:56:00.468Z,3.35
2023-05-10T06:00:53.563Z,3.30
2023-05-10T06:03:21.538Z,3.10
2023-05-10T06:05:48.151Z,3.40
2023-05-10T06:08:14.577Z,3.10
2023-05-10T06:10:41.291Z,3.20
2023-05-10T06:13:08.070Z,2.97
2023-05-10T06:15:34.576Z,3.00
2023-05-10T06:18:02.311Z,3.00
2023-05-10T06:20:29.165Z,3.05
2023-05-10T06:22:57.541Z,2.70
2023-05-10T06:25:24.430Z,3.15
2023-05-10T06:27:53.623Z,3.13
2023-05-10T06:30:20.606Z,3.05
2023-05-10T06:32:47.485Z,2.90
2023-05-10T06:37:41.014Z,3.35
2023-05-10T06:40:08.365Z,2.65
2023-05-10T06:42:34.795Z,3.38
2023-05-10T06:45:03.613Z,2.85
2023-05-10T06:47:30.672Z,2.83
2023-05-10T06:49:57.651Z,3.15
2023-05-10T06:54:50.949Z,2.80
2023-05-10T06:57:31.215Z,2.80
2023-05-10T07:00:00.208Z,2.67
2023-05-10T07:02:27.865Z,2.70
2023-05-10T07:04:54.453Z,3.30
2023-05-10T07:07:21.267Z,2.70
2023-05-10T07:09:48.015Z,2.80
2023-05-10T07:12:15.681Z,2.40
2023-05-10T07:14:43.282Z,2.80
2023-05-10T07:17:10.422Z,3.10
2023-05-10T07:19:37.102Z,2.55
2023-05-10T07:22:04.095Z,2.80
2023-05-10T07:24:30.986Z,2.65
2023-05-10T07:26:59.426Z,2.88
2023-05-10T07:29:26.750Z,2.70
2023-05-10T07:31:53.428Z,2.63
2023-05-10T07:34:20.208Z,2.95
2023-05-10T07:36:47.451Z,2.80
2023-05-10T07:39:18.668Z,2.50
2023-05-10T07:41:53.086Z,2.80
2023-05-10T07:44:19.848Z,3.05
2023-05-10T07:46:46.344Z,2.97
2023-05-10T07:49:13.870Z,3.28
2023-05-10T07:51:40.552Z,2.88
2023-05-10T07:54:07.011Z,3.00
2023-05-10T07:56:33.751Z,2.70
2023-05-10T07:59:00.751Z,3.33
2023-05-10T08:01:31.184Z,2.45
2023-05-10T08:03:57.882Z,2.80
2023-05-10T08:06:24.607Z,2.92
2023-05-10T08:08:51.072Z,3.15
2023-05-10T08:11:18.809Z,2.90
2023-05-10T08:13:46.289Z,3.05
2023-05-10T08:16:13.081Z,2.67
2023-05-10T08:18:41.035Z,2.65
2023-05-10T08:21:08.037Z,2.95
2023-05-10T08:23:34.556Z,3.15
2023-05-10T08:26:01.195Z,3.17
2023-05-10T08:28:27.746Z,2.90
2023-05-10T08:30:54.325Z,2.72
2023-05-10T08:33:21.497Z,3.08
2023-05-10T08:35:48.423Z,2.85
2023-05-10T08:38:15.014Z,2.67
2023-05-10T08:40:45.989Z,3.00
2023-05-10T08:43:14.099Z,2.67
2023-05-10T08:45:43.081Z,3.20
2023-05-10T08:48:11.917Z,2.90
2023-05-10T08:50:40.746Z,3.17
2023-05-10T08:53:11.642Z,2.70
2023-05-10T08:55:38.849Z,2.60
2023-05-10T08:58:09.748Z,3.08
2023-05-10T09:00:37.638Z,2.80
2023-05-10T09:03:05.997Z,2.63
2023-05-10T09:05:33.099Z,4.18
2023-05-10T09:07:59.883Z,2.83
2023-05-10T09:12:54.182Z,2.70
2023-05-10T09:15:21.170Z,3.33
2023-05-10T09:17:50.297Z,3.00
2023-05-10T09:20:21.494Z,3.33
2023-05-10T09:22:48.519Z,2.92
2023-05-10T09:25:17.506Z,3.13
2023-05-10T09:27:48.726Z,2.85
2023-05-10T09:30:25.133Z,2.97
2023-05-10T09:32:51.881Z,3.10
2023-05-10T09:37:48.258Z,2.80
2023-05-10T09:40:18.283Z,2.85
2023-05-10T09:43:01.737Z,2.97
2023-05-10T09:45:30.921Z,3.20
2023-05-10T09:47:59.254Z,3.00
2023-05-10T09:50:27.311Z,3.22
2023-05-10T09:53:15.034Z,3.30
2023-05-10T09:55:46.676Z,3.00
2023-05-10T09:58:16.752Z,2.90
2023-05-10T10:00:46.230Z,3.17
2023-05-10T10:03:17.585Z,2.83
2023-05-10T10:05:45.022Z,2.80
2023-05-10T10:08:13.075Z,3.10
2023-05-10T10:10:40.311Z,2.80
2023-05-10T10:13:07.982Z,2.92
2023-05-10T10:15:37.538Z,2.75
2023-05-10T10:18:05.682Z,2.70
2023-05-10T10:20:33.808Z,2.70
2023-05-10T10:23:03.227Z,2.90
2023-05-10T10:25:30.111Z,2.20
2023-05-10T10:28:23.275Z,2.72
2023-05-10T10:30:53.081Z,3.05
2023-05-10T10:33:41.535Z,3.05
2023-05-10T10:36:08.297Z,2.92
2023-05-10T10:39:01.623Z,3.22
2023-05-10T10:41:32.251Z,3.03
2023-05-10T10:44:23.746Z,2.95
2023-05-10T10:47:02.671Z,2.90
2023-05-10T10:49:32.506Z,3.13
2023-05-10T10:52:28.471Z,3.00
2023-05-10T10:55:08.879Z,2.78
2023-05-10T10:57:41.430Z,2.80
2023-05-10T11:00:28.324Z,3.00
2023-05-10T11:02:57.132Z,3.10
2023-05-10T11:05:34.686Z,2.78
2023-05-10T11:08:13.199Z,3.25
2023-05-10T11:10:41.189Z,3.00
2023-05-10T11:13:10.638Z,2.97
2023-05-10T11:15:39.706Z,2.90
2023-05-10T11:18:27.718Z,3.05
2023-05-10T11:20:58.866Z,3.25
2023-05-10T11:23:33.617Z,3.22
2023-05-10T11:26:01.581Z,3.10
2023-05-10T11:28:28.310Z,2.80
2023-05-10T11:30:55.827Z,3.00
2023-05-10T11:33:22.806Z,3.00
2023-05-10T11:35:51.955Z,3.35
2023-05-10T11:38:18.953Z,2.97
2023-05-10T11:40:47.979Z,3.30
2023-05-10T11:43:14.747Z,3.03
2023-05-10T11:45:42.529Z,2.90
2023-05-10T11:48:09.285Z,2.80
2023-05-10T11:50:35.841Z,2.92
2023-05-10T11:53:02.545Z,2.80
2023-05-10T11:55:29.003Z,3.20
2023-05-10T11:57:55.633Z,3.08
2023-05-10T12:00:22.945Z,3.20
2023-05-10T12:02:50.581Z,2.67
2023-05-10T12:05:17.703Z,3.28
2023-05-10T12:07:44.290Z,2.78
2023-05-10T12:10:14.672Z,2.83
2023-05-10T12:12:43.875Z,3.03
2023-05-10T12:15:21.894Z,2.97
2023-05-10T12:17:49.058Z,3.05
2023-05-10T12:20:17.533Z,2.88
2023-05-10T12:22:52.494Z,2.80
2023-05-10T12:25:20.317Z,2.88
2023-05-10T12:28:07.031Z,2.97
2023-05-10T12:30:38.036Z,2.78
2023-05-10T12:33:12.928Z,2.70
2023-05-10T12:35:46.748Z,3.30
2023-05-10T12:38:33.191Z,2.60
2023-05-10T12:41:02.331Z,2.97
2023-05-10T12:43:29.548Z,2.75
2023-05-10T12:45:56.230Z,3.05
2023-05-10T12:48:23.469Z,2.95
2023-05-10T12:50:49.919Z,2.60
2023-05-10T12:53:17.148Z,2.75
2023-05-10T12:55:44.622Z,2.97
2023-05-10T12:58:13.889Z,2.90
2023-05-10T13:00:44.596Z,2.63
2023-05-10T13:05:41.086Z,2.70
2023-05-10T13:08:07.642Z,2.47
2023-05-10T13:10:34.397Z,2.78
2023-05-10T13:13:01.534Z,2.92
2023-05-10T13:15:28.436Z,2.75
2023-05-10T13:17:55.266Z,2.60
2023-05-10T13:20:22.223Z,2.30
2023-05-10T13:22:50.063Z,2.30
2023-05-10T13:25:17.040Z,2.67
2023-05-10T13:30:11.124Z,3.22
2023-05-10T13:32:38.312Z,2.65
2023-05-10T13:35:06.084Z,2.30
2023-05-10T13:37:33.284Z,2.20
2023-05-10T13:40:00.100Z,2.42
2023-05-10T13:42:26.877Z,2.38
2023-05-10T13:45:13.785Z,2.53
2023-05-10T13:47:40.562Z,2.33
2023-05-10T13:50:07.590Z,2.50
2023-05-10T13:52:34.188Z,2.50
2023-05-10T13:55:01.103Z,2.65
2023-05-10T13:57:27.952Z,2.40
2023-05-10T13:59:55.877Z,2.58
2023-05-10T14:02:24.923Z,2.40
2023-05-10T14:04:51.712Z,2.60
2023-05-10T14:07:18.283Z,2.42
2023-05-10T14:12:11.721Z,2.40
2023-05-10T14:14:38.444Z,2.35
2023-05-10T14:17:05.102Z,2.33
2023-05-10T14:19:31.908Z,2.30
2023-05-10T14:21:58.717Z,2.30
2023-05-10T14:24:25.440Z,2.10
2023-05-10T14:26:51.945Z,2.30
2023-05-10T14:29:18.633Z,2.33
2023-05-10T14:31:45.477Z,2.47
2023-05-10T14:34:12.172Z,2.55
2023-05-10T14:39:05.449Z,2.80
2023-05-10T14:41:32.140Z,2.55
2023-05-10T14:43:58.930Z,2.60
2023-05-10T14:46:25.688Z,2.20
2023-05-10T14:48:52.497Z,2.60
2023-05-10T14:51:19.126Z,2.90
2023-05-10T14:56:12.040Z,2.40
2023-05-10T15:01:06.979Z,2.35
2023-05-10T15:03:34.033Z,2.42
2023-05-10T15:06:05.042Z,2.30
2023-05-10T15:08:31.784Z,2.30
2023-05-10T15:10:58.495Z,2.33
2023-05-10T15:13:25.253Z,2.35
2023-05-10T15:15:51.793Z,2.53
2023-05-10T15:18:20.140Z,2.30
2023-05-10T15:20:46.973Z,2.80
2023-05-10T15:23:13.516Z,2.40
2023-05-10T15:25:40.007Z,2.30
2023-05-10T15:28:06.792Z,2.20
2023-05-10T15:30:33.557Z,2.45
2023-05-10T15:33:00.419Z,2.30
2023-05-10T15:35:27.737Z,2.33
2023-05-10T15:37:54.233Z,2.30
2023-05-10T15:40:22.200Z,2.50
2023-05-10T15:42:48.753Z,2.33
2023-05-10T15:47:42.317Z,2.42
2023-05-10T15:50:09.878Z,2.55
2023-05-10T15:52:38.620Z,2.65
2023-05-10T15:55:05.860Z,2.40
2023-05-10T15:57:32.395Z,2.40
2023-05-10T15:59:59.124Z,2.75
2023-05-10T16:04:54.532Z,2.60
2023-05-10T16:07:21.195Z,3.08
2023-05-10T16:09:48.124Z,2.50
2023-05-10T16:12:17.316Z,2.50
2023-05-10T16:14:44.081Z,2.75
2023-05-10T16:17:10.854Z,2.63
2023-05-10T16:19:37.648Z,2.50
2023-05-10T16:24:31.743Z,3.20
2023-05-10T16:29:25.026Z,2.42
2023-05-10T16:31:51.525Z,2.58
2023-05-10T16:34:17.939Z,2.67
2023-05-10T16:36:44.647Z,2.60
2023-05-10T16:41:37.560Z,2.55
2023-05-10T16:44:04.064Z,2.80
2023-05-10T16:46:30.629Z,2.58
2023-05-10T16:48:57.138Z,2.70
2023-05-10T16:51:23.914Z,2.67
2023-05-10T16:56:17.016Z,2.83
2023-05-10T17:01:10.302Z,3.03
2023-05-10T17:06:05.791Z,2.72
2023-05-10T17:08:32.360Z,2.70
2023-05-10T17:13:28.222Z,3.10
2023-05-10T17:15:55.063Z,4.15
2023-05-10T17:18:22.079Z,4.45
2023-05-10T17:20:48.645Z,4.22
2023-05-10T17:23:15.434Z,4.32
2023-05-10T17:25:42.135Z,3.78
2023-05-10T17:28:08.688Z,4.20
2023-05-10T17:30:37.440Z,4.40
2023-05-10T17:33:04.155Z,4.93
2023-05-10T17:37:57.469Z,4.18
2023-05-10T17:40:24.032Z,4.88
2023-05-10T17:42:50.766Z,5.18
2023-05-10T17:47:46.318Z,5.13
2023-05-10T17:50:13.895Z,4.80
2023-05-10T17:52:40.636Z,5.38
2023-05-10T17:57:34.299Z,4.80
2023-05-10T18:00:00.971Z,5.03
2023-05-10T18:04:54.330Z,4.60
2023-05-10T18:07:24.026Z,4.97
2023-05-10T18:09:50.594Z,5.13
2023-05-10T18:12:17.224Z,5.10
2023-05-10T18:14:43.733Z,5.25
2023-05-10T18:17:10.542Z,5.35
2023-05-10T18:19:37.543Z,5.03
2023-05-10T18:22:04.558Z,5.25
2023-05-10T18:27:20.270Z,4.75
2023-05-10T18:29:46.919Z,5.45
2023-05-10T18:32:13.816Z,5.10
2023-05-10T18:34:40.307Z,5.28
2023-05-10T18:37:08.004Z,5.63
2023-05-10T18:39:36.137Z,5.35
2023-05-10T18:42:04.317Z,5.35
2023-05-10T18:44:31.403Z,5.93
2023-05-10T18:46:58.158Z,6.00
2023-05-10T18:51:52.869Z,5.78
2023-05-10T18:54:19.639Z,5.10
2023-05-10T18:59:13.854Z,5.63
2023-05-10T19:01:41.511Z,5.35
2023-05-10T19:04:08.162Z,6.00
2023-05-10T19:06:36.151Z,5.60
2023-05-10T19:09:02.820Z,5.80
2023-05-10T19:11:29.280Z,5.47
2023-05-10T19:13:55.790Z,5.65
2023-05-10T19:16:24.243Z,6.20
2023-05-10T19:18:52.531Z,6.00
2023-05-10T19:21:19.346Z,6.22
2023-05-10T19:23:46.047Z,6.30
2023-05-10T19:26:12.608Z,5.68
2023-05-10T19:28:39.702Z,5.38
2023-05-10T19:31:09.337Z,6.18
2023-05-10T19:33:36.108Z,5.63
2023-05-10T19:36:02.927Z,5.88
2023-05-10T19:38:29.797Z,5.90
2023-05-10T19:40:59.549Z,5.53
2023-05-10T19:43:27.577Z,5.60
2023-05-10T19:45:55.850Z,5.43
2023-05-10T19:48:22.434Z,5.90
2023-05-10T19:53:15.641Z,5.75
2023-05-10T19:55:42.676Z,5.72
2023-05-10T19:58:09.190Z,6.55
2023-05-10T20:00:36.279Z,5.78
2023-05-10T20:03:04.062Z,6.10
2023-05-10T20:05:30.935Z,5.65
2023-05-10T20:10:26.375Z,6.40
2023-05-10T20:12:54.169Z,6.05
2023-05-10T20:15:22.019Z,6.22
2023-05-10T20:17:52.485Z,6.15
2023-05-10T20:20:20.443Z,5.90
2023-05-10T20:22:49.647Z,5.35
2023-05-10T20:25:17.839Z,6.40
2023-05-10T20:27:44.621Z,5.70
2023-05-10T20:30:12.989Z,6.55
2023-05-10T20:32:39.876Z,5.93
2023-05-10T20:35:06.802Z,6.30
2023-05-10T20:37:33.374Z,6.07
2023-05-10T20:40:00.078Z,6.30
2023-05-10T20:42:28.702Z,6.05
2023-05-10T20:44:55.899Z,6.18
2023-05-10T20:47:22.403Z,6.50
2023-05-10T20:49:49.604Z,6.50
2023-05-10T20:52:16.846Z,6.25
2023-05-10T20:54:43.855Z,6.45
2023-05-10T20:57:10.292Z,6.03
2023-05-10T20:59:36.991Z,6.70
2023-05-10T21:02:03.586Z,6.50
2023-05-10T21:04:30.337Z,5.95
2023-05-10T21:09:23.249Z,6.30
2023-05-10T21:11:50.234Z,6.40
2023-05-10T21:14:16.843Z,6.63
2023-05-10T21:16:46.623Z,6.43
2023-05-10T21:19:13.115Z,5.85
2023-05-10T21:21:39.814Z,6.60
2023-05-10T21:24:06.938Z,6.50
2023-05-10T21:26:34.709Z,6.85
2023-05-10T21:29:01.457Z,6.63
2023-05-10T21:31:28.273Z,6.88
2023-05-10T21:33:55.059Z,6.93
2023-05-10T21:36:21.542Z,6.18
2023-05-10T21:38:48.430Z,6.93
2023-05-10T21:43:41.465Z,7.72
2023-05-10T21:46:08.811Z,7.70
2023-05-10T21:48:36.676Z,7.28
2023-05-10T21:51:03.522Z,7.70
2023-05-10T21:55:56.639Z,7.28
2023-05-10T21:58:24.490Z,7.97
2023-05-10T22:00:51.316Z,8.18
2023-05-10T22:03:18.268Z,8.35
2023-05-10T22:05:45.162Z,8.02
2023-05-10T22:08:11.623Z,8.20
2023-05-10T22:10:38.310Z,8.30
2023-05-10T22:13:05.179Z,7.78
2023-05-10T22:15:32.591Z,8.07
2023-05-10T22:18:00.208Z,7.97
2023-05-10T22:20:26.951Z,8.80
2023-05-10T22:22:55.226Z,8.50
2023-05-10T22:25:21.868Z,8.07
2023-05-10T22:27:48.608Z,7.90
2023-05-10T22:30:15.752Z,8.50
2023-05-10T22:32:42.640Z,7.93
2023-05-10T22:35:09.372Z,8.00
2023-05-10T22:37:36.034Z,9.27
2023-05-10T22:40:02.729Z,8.18
2023-05-10T22:42:30.043Z,8.85
2023-05-10T22:44:56.519Z,8.82
2023-05-10T22:47:23.267Z,8.50
2023-05-10T22:49:50.193Z,8.85
2023-05-10T22:54:43.064Z,8.15
2023-05-10T22:57:09.907Z,7.93
2023-05-10T22:59:36.509Z,8.85
2023-05-10T23:02:04.197Z,8.82
2023-05-10T23:04:30.954Z,8.60
2023-05-10T23:07:00.530Z,8.73
2023-05-10T23:09:27.084Z,8.55
2023-05-10T23:11:53.891Z,9.50
2023-05-10T23:14:20.425Z,9.85
2023-05-10T23:16:47.214Z,10.48
2023-05-10T23:19:13.714Z,9.73
2023-05-10T23:21:40.409Z,9.60
2023-05-10T23:24:07.451Z,9.48
2023-05-10T23:26:34.336Z,10.55
2023-05-10T23:29:01.205Z,10.32
2023-05-10T23:31:27.818Z,10.45
2023-05-10T23:33:54.691Z,10.80
2023-05-10T23:36:21.270Z,9.48
2023-05-10T23:38:47.728Z,9.75
2023-05-10T23:41:14.280Z,10.45
2023-05-10T23:43:40.712Z,9.68
2023-05-10T23:46:07.444Z,10.70
2023-05-10T23:48:34.047Z,9.80
2023-05-10T23:51:00.589Z,9.90
2023-05-10T23:53:27.351Z,10.38
2023-05-10T23:55:53.885Z,9.27
2023-05-10T23:58:20.370Z,10.00
